sensor_id;sensor_type;location;lat;lon;timestamp;P1;durP1;ratioP1;P2;durP2;ratioP2
30635;SDS011;17400;52.392;9.750;2023-02-13T00:00:35;16.75;;;7.55;;
30635;SDS011;17400;52.392;9.750;2023-02-13T00:03:04;11.95;;;7.07;;
30635;SDS011;17400;52.392;9.750;2023-02-13T00:05:32;11.77;;;7.05;;
30635;SDS011;17400;52.392;9.750;2023-02-13T00:08:00;11.55;;;6.97;;
30635;SDS011;17400;52.392;9.750;2023-02-13T00:10:28;12.00;;;7.43;;
30635;SDS011;17400;52.392;9.750;2023-02-13T00:12:57;11.63;;;7.10;;
30635;SDS011;17400;52.392;9.750;2023-02-13T00:15:24;11.25;;;7.18;;
30635;SDS011;17400;52.392;9.750;2023-02-13T00:17:52;12.55;;;7.20;;
30635;SDS011;17400;52.392;9.750;2023-02-13T00:20:20;13.90;;;7.57;;
30635;SDS011;17400;52.392;9.750;2023-02-13T00:22:48;9.23;;;5.75;;
30635;SDS011;17400;52.392;9.750;2023-02-13T00:25:15;10.00;;;6.20;;
30635;SDS011;17400;52.392;9.750;2023-02-13T00:27:43;10.60;;;5.82;;
30635;SDS011;17400;52.392;9.750;2023-02-13T00:30:13;13.38;;;6.57;;
30635;SDS011;17400;52.392;9.750;2023-02-13T00:32:41;11.60;;;6.65;;
30635;SDS011;17400;52.392;9.750;2023-02-13T00:35:09;12.98;;;5.88;;
30635;SDS011;17400;52.392;9.750;2023-02-13T00:37:36;12.55;;;7.05;;
30635;SDS011;17400;52.392;9.750;2023-02-13T00:40:04;11.55;;;6.47;;
30635;SDS011;17400;52.392;9.750;2023-02-13T00:42:33;11.15;;;6.28;;
30635;SDS011;17400;52.392;9.750;2023-02-13T00:45:00;11.65;;;6.43;;
30635;SDS011;17400;52.392;9.750;2023-02-13T00:47:29;11.82;;;6.82;;
30635;SDS011;17400;52.392;9.750;2023-02-13T00:49:57;11.43;;;6.63;;
30635;SDS011;17400;52.392;9.750;2023-02-13T00:52:24;10.07;;;6.05;;
30635;SDS011;17400;52.392;9.750;2023-02-13T00:54:52;13.18;;;7.32;;
30635;SDS011;17400;52.392;9.750;2023-02-13T00:57:20;12.02;;;6.53;;
30635;SDS011;17400;52.392;9.750;2023-02-13T00:59:47;11.38;;;5.57;;
30635;SDS011;17400;52.392;9.750;2023-02-13T01:02:17;12.57;;;6.25;;
30635;SDS011;17400;52.392;9.750;2023-02-13T01:04:46;14.10;;;7.00;;
30635;SDS011;17400;52.392;9.750;2023-02-13T01:07:13;12.30;;;6.93;;
30635;SDS011;17400;52.392;9.750;2023-02-13T01:09:42;13.25;;;6.45;;
30635;SDS011;17400;52.392;9.750;2023-02-13T01:12:10;13.38;;;6.63;;
30635;SDS011;17400;52.392;9.750;2023-02-13T01:14:37;12.85;;;7.00;;
30635;SDS011;17400;52.392;9.750;2023-02-13T01:17:05;11.82;;;6.57;;
30635;SDS011;17400;52.392;9.750;2023-02-13T01:19:33;9.90;;;6.38;;
30635;SDS011;17400;52.392;9.750;2023-02-13T01:22:02;16.20;;;7.57;;
30635;SDS011;17400;52.392;9.750;2023-02-13T01:24:30;11.75;;;7.57;;
30635;SDS011;17400;52.392;9.750;2023-02-13T01:26:58;15.07;;;8.18;;
30635;SDS011;17400;52.392;9.750;2023-02-13T01:29:27;14.45;;;7.78;;
30635;SDS011;17400;52.392;9.750;2023-02-13T01:31:55;13.13;;;6.95;;
30635;SDS011;17400;52.392;9.750;2023-02-13T01:34:23;16.23;;;7.70;;
30635;SDS011;17400;52.392;9.750;2023-02-13T01:36:51;14.10;;;7.68;;
30635;SDS011;17400;52.392;9.750;2023-02-13T01:39:20;14.07;;;7.47;;
30635;SDS011;17400;52.392;9.750;2023-02-13T01:41:47;16.10;;;7.88;;
30635;SDS011;17400;52.392;9.750;2023-02-13T01:47:17;14.80;;;8.15;;
30635;SDS011;17400;52.392;9.750;2023-02-13T01:49:52;11.52;;;7.13;;
30635;SDS011;17400;52.392;9.750;2023-02-13T01:52:25;14.50;;;8.20;;
30635;SDS011;17400;52.392;9.750;2023-02-13T01:54:55;13.85;;;7.10;;
30635;SDS011;17400;52.392;9.750;2023-02-13T01:57:23;13.60;;;6.95;;
30635;SDS011;17400;52.392;9.750;2023-02-13T01:59:53;14.55;;;8.85;;
30635;SDS011;17400;52.392;9.750;2023-02-13T02:02:24;16.63;;;8.75;;
30635;SDS011;17400;52.392;9.750;2023-02-13T02:04:54;13.27;;;7.43;;
30635;SDS011;17400;52.392;9.750;2023-02-13T02:07:23;14.18;;;7.57;;
30635;SDS011;17400;52.392;9.750;2023-02-13T02:09:53;14.65;;;7.70;;
30635;SDS011;17400;52.392;9.750;2023-02-13T02:12:28;15.65;;;8.10;;
30635;SDS011;17400;52.392;9.750;2023-02-13T02:15:03;14.18;;;7.95;;
30635;SDS011;17400;52.392;9.750;2023-02-13T02:17:31;14.77;;;7.57;;
30635;SDS011;17400;52.392;9.750;2023-02-13T02:20:03;15.40;;;8.18;;
30635;SDS011;17400;52.392;9.750;2023-02-13T02:29:00;16.38;;;7.65;;
30635;SDS011;17400;52.392;9.750;2023-02-13T02:31:48;16.90;;;7.93;;
30635;SDS011;17400;52.392;9.750;2023-02-13T02:34:40;15.07;;;7.65;;
30635;SDS011;17400;52.392;9.750;2023-02-13T02:37:21;12.95;;;7.50;;
30635;SDS011;17400;52.392;9.750;2023-02-13T02:40:02;13.10;;;6.15;;
30635;SDS011;17400;52.392;9.750;2023-02-13T02:42:40;15.05;;;7.63;;
30635;SDS011;17400;52.392;9.750;2023-02-13T02:45:15;13.63;;;7.05;;
30635;SDS011;17400;52.392;9.750;2023-02-13T02:47:53;10.73;;;6.20;;
30635;SDS011;17400;52.392;9.750;2023-02-13T02:50:45;14.77;;;6.68;;
30635;SDS011;17400;52.392;9.750;2023-02-13T02:53:22;15.77;;;7.57;;
30635;SDS011;17400;52.392;9.750;2023-02-13T02:56:00;14.85;;;7.28;;
30635;SDS011;17400;52.392;9.750;2023-02-13T02:58:33;14.80;;;7.22;;
30635;SDS011;17400;52.392;9.750;2023-02-13T03:01:24;15.68;;;8.05;;
30635;SDS011;17400;52.392;9.750;2023-02-13T03:04:15;15.55;;;7.80;;
30635;SDS011;17400;52.392;9.750;2023-02-13T03:07:05;14.10;;;7.68;;
30635;SDS011;17400;52.392;9.750;2023-02-13T03:09:36;14.57;;;7.90;;
30635;SDS011;17400;52.392;9.750;2023-02-13T03:12:26;12.82;;;6.40;;
30635;SDS011;17400;52.392;9.750;2023-02-13T03:15:16;16.75;;;8.02;;
30635;SDS011;17400;52.392;9.750;2023-02-13T03:17:43;15.07;;;6.88;;
30635;SDS011;17400;52.392;9.750;2023-02-13T03:20:34;13.77;;;6.82;;
30635;SDS011;17400;52.392;9.750;2023-02-13T03:23:29;14.15;;;6.60;;
30635;SDS011;17400;52.392;9.750;2023-02-13T03:26:21;12.52;;;6.32;;
30635;SDS011;17400;52.392;9.750;2023-02-13T03:29:13;14.27;;;6.78;;
30635;SDS011;17400;52.392;9.750;2023-02-13T03:32:19;14.93;;;7.47;;
30635;SDS011;17400;52.392;9.750;2023-02-13T03:34:55;13.75;;;6.90;;
30635;SDS011;17400;52.392;9.750;2023-02-13T03:37:50;11.65;;;6.75;;
30635;SDS011;17400;52.392;9.750;2023-02-13T03:40:27;11.63;;;6.88;;
30635;SDS011;17400;52.392;9.750;2023-02-13T03:43:02;15.93;;;6.68;;
30635;SDS011;17400;52.392;9.750;2023-02-13T03:45:35;12.60;;;7.30;;
30635;SDS011;17400;52.392;9.750;2023-02-13T03:48:21;12.20;;;6.75;;
30635;SDS011;17400;52.392;9.750;2023-02-13T03:51:11;11.35;;;5.88;;
30635;SDS011;17400;52.392;9.750;2023-02-13T03:53:44;11.70;;;6.20;;
30635;SDS011;17400;52.392;9.750;2023-02-13T03:56:15;12.02;;;6.03;;
30635;SDS011;17400;52.392;9.750;2023-02-13T03:59:03;12.65;;;6.50;;
30635;SDS011;17400;52.392;9.750;2023-02-13T04:01:47;10.70;;;5.97;;
30635;SDS011;17400;52.392;9.750;2023-02-13T04:04:21;11.43;;;5.78;;
30635;SDS011;17400;52.392;9.750;2023-02-13T04:06:54;13.43;;;6.43;;
30635;SDS011;17400;52.392;9.750;2023-02-13T04:09:27;14.00;;;6.75;;
30635;SDS011;17400;52.392;9.750;2023-02-13T04:11:57;13.50;;;7.72;;
30635;SDS011;17400;52.392;9.750;2023-02-13T04:14:30;15.63;;;7.53;;
30635;SDS011;17400;52.392;9.750;2023-02-13T04:17:03;11.98;;;6.40;;
30635;SDS011;17400;52.392;9.750;2023-02-13T04:19:32;12.18;;;6.85;;
30635;SDS011;17400;52.392;9.750;2023-02-13T04:22:00;14.07;;;7.15;;
30635;SDS011;17400;52.392;9.750;2023-02-13T04:24:30;12.32;;;5.10;;
30635;SDS011;17400;52.392;9.750;2023-02-13T04:26:58;8.32;;;4.88;;
30635;SDS011;17400;52.392;9.750;2023-02-13T04:29:26;10.82;;;5.78;;
30635;SDS011;17400;52.392;9.750;2023-02-13T04:31:53;12.05;;;6.20;;
30635;SDS011;17400;52.392;9.750;2023-02-13T04:34:21;7.97;;;4.88;;
30635;SDS011;17400;52.392;9.750;2023-02-13T04:36:49;13.10;;;5.97;;
30635;SDS011;17400;52.392;9.750;2023-02-13T04:39:16;12.48;;;6.03;;
30635;SDS011;17400;52.392;9.750;2023-02-13T04:41:45;9.80;;;4.97;;
30635;SDS011;17400;52.392;9.750;2023-02-13T04:44:13;11.48;;;6.50;;
30635;SDS011;17400;52.392;9.750;2023-02-13T04:46:41;10.75;;;5.13;;
30635;SDS011;17400;52.392;9.750;2023-02-13T04:49:08;9.88;;;5.65;;
30635;SDS011;17400;52.392;9.750;2023-02-13T04:51:36;11.02;;;5.82;;
30635;SDS011;17400;52.392;9.750;2023-02-13T04:54:04;10.23;;;5.30;;
30635;SDS011;17400;52.392;9.750;2023-02-13T04:56:31;9.18;;;5.05;;
30635;SDS011;17400;52.392;9.750;2023-02-13T04:59:00;10.10;;;5.13;;
30635;SDS011;17400;52.392;9.750;2023-02-13T05:01:28;10.63;;;5.80;;
30635;SDS011;17400;52.392;9.750;2023-02-13T05:03:59;10.90;;;5.00;;
30635;SDS011;17400;52.392;9.750;2023-02-13T05:06:26;12.63;;;5.78;;
30635;SDS011;17400;52.392;9.750;2023-02-13T05:08:54;8.65;;;5.00;;
30635;SDS011;17400;52.392;9.750;2023-02-13T05:11:22;11.10;;;5.13;;
30635;SDS011;17400;52.392;9.750;2023-02-13T05:13:49;13.45;;;7.20;;
30635;SDS011;17400;52.392;9.750;2023-02-13T05:16:18;13.07;;;6.65;;
30635;SDS011;17400;52.392;9.750;2023-02-13T05:18:46;8.38;;;4.95;;
30635;SDS011;17400;52.392;9.750;2023-02-13T05:21:14;13.23;;;6.20;;
30635;SDS011;17400;52.392;9.750;2023-02-13T05:23:59;11.65;;;5.20;;
30635;SDS011;17400;52.392;9.750;2023-02-13T05:26:27;13.05;;;7.10;;
30635;SDS011;17400;52.392;9.750;2023-02-13T05:28:55;10.93;;;5.32;;
30635;SDS011;17400;52.392;9.750;2023-02-13T05:31:41;10.90;;;5.55;;
30635;SDS011;17400;52.392;9.750;2023-02-13T05:34:09;7.95;;;4.22;;
30635;SDS011;17400;52.392;9.750;2023-02-13T05:36:37;8.43;;;4.63;;
30635;SDS011;17400;52.392;9.750;2023-02-13T05:39:05;8.55;;;4.57;;
30635;SDS011;17400;52.392;9.750;2023-02-13T05:41:33;7.57;;;3.78;;
30635;SDS011;17400;52.392;9.750;2023-02-13T05:44:01;11.57;;;4.82;;
30635;SDS011;17400;52.392;9.750;2023-02-13T05:46:29;7.63;;;4.53;;
30635;SDS011;17400;52.392;9.750;2023-02-13T05:48:58;5.53;;;2.90;;
30635;SDS011;17400;52.392;9.750;2023-02-13T05:51:29;8.43;;;4.22;;
30635;SDS011;17400;52.392;9.750;2023-02-13T05:53:57;10.15;;;4.53;;
30635;SDS011;17400;52.392;9.750;2023-02-13T05:56:25;9.85;;;4.65;;
30635;SDS011;17400;52.392;9.750;2023-02-13T05:58:53;7.15;;;3.47;;
30635;SDS011;17400;52.392;9.750;2023-02-13T06:01:22;10.68;;;5.10;;
30635;SDS011;17400;52.392;9.750;2023-02-13T06:03:50;9.27;;;4.40;;
30635;SDS011;17400;52.392;9.750;2023-02-13T06:06:20;7.00;;;3.60;;
30635;SDS011;17400;52.392;9.750;2023-02-13T06:08:48;7.15;;;3.42;;
30635;SDS011;17400;52.392;9.750;2023-02-13T06:11:16;7.10;;;3.22;;
30635;SDS011;17400;52.392;9.750;2023-02-13T06:13:44;7.88;;;3.83;;
30635;SDS011;17400;52.392;9.750;2023-02-13T06:16:12;9.10;;;3.65;;
30635;SDS011;17400;52.392;9.750;2023-02-13T06:18:39;9.48;;;4.82;;
30635;SDS011;17400;52.392;9.750;2023-02-13T06:21:07;9.25;;;4.20;;
30635;SDS011;17400;52.392;9.750;2023-02-13T06:23:36;9.85;;;4.55;;
30635;SDS011;17400;52.392;9.750;2023-02-13T06:26:05;11.40;;;5.10;;
30635;SDS011;17400;52.392;9.750;2023-02-13T06:28:34;10.57;;;5.80;;
30635;SDS011;17400;52.392;9.750;2023-02-13T06:31:02;6.82;;;3.72;;
30635;SDS011;17400;52.392;9.750;2023-02-13T06:33:30;8.23;;;5.13;;
30635;SDS011;17400;52.392;9.750;2023-02-13T06:35:58;10.25;;;4.88;;
30635;SDS011;17400;52.392;9.750;2023-02-13T06:38:26;12.27;;;4.50;;
30635;SDS011;17400;52.392;9.750;2023-02-13T06:40:58;11.77;;;4.97;;
30635;SDS011;17400;52.392;9.750;2023-02-13T06:43:27;9.77;;;4.43;;
30635;SDS011;17400;52.392;9.750;2023-02-13T06:45:54;22.48;;;5.55;;
30635;SDS011;17400;52.392;9.750;2023-02-13T06:48:22;8.00;;;3.78;;
30635;SDS011;17400;52.392;9.750;2023-02-13T06:50:51;9.35;;;4.88;;
30635;SDS011;17400;52.392;9.750;2023-02-13T06:53:19;9.93;;;4.57;;
30635;SDS011;17400;52.392;9.750;2023-02-13T06:55:50;8.40;;;3.60;;
30635;SDS011;17400;52.392;9.750;2023-02-13T06:58:20;14.20;;;4.05;;
30635;SDS011;17400;52.392;9.750;2023-02-13T07:00:49;8.10;;;3.63;;
30635;SDS011;17400;52.392;9.750;2023-02-13T07:03:19;6.97;;;2.97;;
30635;SDS011;17400;52.392;9.750;2023-02-13T07:05:47;6.18;;;3.33;;
30635;SDS011;17400;52.392;9.750;2023-02-13T07:08:17;8.27;;;4.13;;
30635;SDS011;17400;52.392;9.750;2023-02-13T07:10:45;7.28;;;4.10;;
30635;SDS011;17400;52.392;9.750;2023-02-13T07:13:13;10.20;;;4.05;;
30635;SDS011;17400;52.392;9.750;2023-02-13T07:15:43;8.15;;;4.55;;
30635;SDS011;17400;52.392;9.750;2023-02-13T07:18:11;7.30;;;4.07;;
30635;SDS011;17400;52.392;9.750;2023-02-13T07:20:39;8.77;;;3.92;;
30635;SDS011;17400;52.392;9.750;2023-02-13T07:23:07;8.23;;;4.00;;
30635;SDS011;17400;52.392;9.750;2023-02-13T07:25:35;8.43;;;4.22;;
30635;SDS011;17400;52.392;9.750;2023-02-13T07:28:03;8.60;;;4.43;;
30635;SDS011;17400;52.392;9.750;2023-02-13T07:30:32;8.45;;;4.63;;
30635;SDS011;17400;52.392;9.750;2023-02-13T07:33:03;8.98;;;4.15;;
30635;SDS011;17400;52.392;9.750;2023-02-13T07:35:31;7.88;;;4.05;;
30635;SDS011;17400;52.392;9.750;2023-02-13T07:38:01;9.02;;;4.53;;
30635;SDS011;17400;52.392;9.750;2023-02-13T07:40:29;7.55;;;4.35;;
30635;SDS011;17400;52.392;9.750;2023-02-13T07:42:59;8.60;;;3.95;;
30635;SDS011;17400;52.392;9.750;2023-02-13T07:45:27;6.60;;;3.30;;
30635;SDS011;17400;52.392;9.750;2023-02-13T07:47:55;8.07;;;4.07;;
30635;SDS011;17400;52.392;9.750;2023-02-13T07:50:24;6.13;;;3.22;;
30635;SDS011;17400;52.392;9.750;2023-02-13T07:52:52;7.80;;;3.55;;
30635;SDS011;17400;52.392;9.750;2023-02-13T07:55:21;9.27;;;4.05;;
30635;SDS011;17400;52.392;9.750;2023-02-13T07:57:49;6.43;;;2.97;;
30635;SDS011;17400;52.392;9.750;2023-02-13T08:00:17;7.95;;;3.90;;
30635;SDS011;17400;52.392;9.750;2023-02-13T08:02:48;8.18;;;4.20;;
30635;SDS011;17400;52.392;9.750;2023-02-13T08:05:16;6.32;;;3.20;;
30635;SDS011;17400;52.392;9.750;2023-02-13T08:07:45;9.48;;;4.25;;
30635;SDS011;17400;52.392;9.750;2023-02-13T08:10:13;9.68;;;4.53;;
30635;SDS011;17400;52.392;9.750;2023-02-13T08:13:00;8.95;;;3.95;;
30635;SDS011;17400;52.392;9.750;2023-02-13T08:15:27;8.75;;;4.53;;
30635;SDS011;17400;52.392;9.750;2023-02-13T08:17:56;11.95;;;4.93;;
30635;SDS011;17400;52.392;9.750;2023-02-13T08:20:23;10.23;;;4.78;;
30635;SDS011;17400;52.392;9.750;2023-02-13T08:22:53;8.98;;;4.43;;
30635;SDS011;17400;52.392;9.750;2023-02-13T08:25:21;8.63;;;4.15;;
30635;SDS011;17400;52.392;9.750;2023-02-13T08:27:48;6.50;;;3.25;;
30635;SDS011;17400;52.392;9.750;2023-02-13T08:30:16;6.13;;;2.95;;
30635;SDS011;17400;52.392;9.750;2023-02-13T08:32:44;10.82;;;4.90;;
30635;SDS011;17400;52.392;9.750;2023-02-13T08:35:20;12.13;;;5.47;;
30635;SDS011;17400;52.392;9.750;2023-02-13T08:37:52;12.10;;;4.13;;
30635;SDS011;17400;52.392;9.750;2023-02-13T08:40:20;10.98;;;5.18;;
30635;SDS011;17400;52.392;9.750;2023-02-13T08:42:51;11.20;;;4.88;;
30635;SDS011;17400;52.392;9.750;2023-02-13T08:45:19;7.72;;;3.60;;
30635;SDS011;17400;52.392;9.750;2023-02-13T08:47:48;8.82;;;3.10;;
30635;SDS011;17400;52.392;9.750;2023-02-13T08:50:16;11.20;;;4.22;;
30635;SDS011;17400;52.392;9.750;2023-02-13T08:52:44;12.00;;;4.85;;
30635;SDS011;17400;52.392;9.750;2023-02-13T08:55:15;10.75;;;4.97;;
30635;SDS011;17400;52.392;9.750;2023-02-13T08:57:43;9.65;;;4.35;;
30635;SDS011;17400;52.392;9.750;2023-02-13T09:00:11;10.75;;;5.03;;
30635;SDS011;17400;52.392;9.750;2023-02-13T09:02:40;10.15;;;4.10;;
30635;SDS011;17400;52.392;9.750;2023-02-13T09:05:08;9.20;;;3.13;;
30635;SDS011;17400;52.392;9.750;2023-02-13T09:07:36;8.63;;;3.85;;
30635;SDS011;17400;52.392;9.750;2023-02-13T09:10:05;8.25;;;3.58;;
30635;SDS011;17400;52.392;9.750;2023-02-13T09:12:36;10.18;;;4.70;;
30635;SDS011;17400;52.392;9.750;2023-02-13T09:15:06;7.88;;;3.65;;
30635;SDS011;17400;52.392;9.750;2023-02-13T09:17:34;7.88;;;4.25;;
30635;SDS011;17400;52.392;9.750;2023-02-13T09:20:02;5.97;;;3.15;;
30635;SDS011;17400;52.392;9.750;2023-02-13T09:22:31;9.35;;;4.40;;
30635;SDS011;17400;52.392;9.750;2023-02-13T09:24:59;8.15;;;4.20;;
30635;SDS011;17400;52.392;9.750;2023-02-13T09:27:30;9.15;;;4.30;;
30635;SDS011;17400;52.392;9.750;2023-02-13T09:30:02;10.23;;;5.25;;
30635;SDS011;17400;52.392;9.750;2023-02-13T09:32:30;6.75;;;3.50;;
30635;SDS011;17400;52.392;9.750;2023-02-13T09:34:59;9.02;;;4.15;;
30635;SDS011;17400;52.392;9.750;2023-02-13T09:37:27;9.70;;;4.93;;
30635;SDS011;17400;52.392;9.750;2023-02-13T09:39:55;7.10;;;3.75;;
30635;SDS011;17400;52.392;9.750;2023-02-13T09:42:23;8.77;;;3.97;;
30635;SDS011;17400;52.392;9.750;2023-02-13T09:44:56;8.15;;;4.20;;
30635;SDS011;17400;52.392;9.750;2023-02-13T09:47:28;5.57;;;2.78;;
30635;SDS011;17400;52.392;9.750;2023-02-13T09:49:59;4.40;;;2.60;;
30635;SDS011;17400;52.392;9.750;2023-02-13T09:52:31;6.40;;;3.03;;
30635;SDS011;17400;52.392;9.750;2023-02-13T09:55:00;6.20;;;3.42;;
30635;SDS011;17400;52.392;9.750;2023-02-13T09:57:29;7.50;;;3.50;;
30635;SDS011;17400;52.392;9.750;2023-02-13T10:00:03;9.55;;;4.28;;
30635;SDS011;17400;52.392;9.750;2023-02-13T10:02:43;6.57;;;3.63;;
30635;SDS011;17400;52.392;9.750;2023-02-13T10:05:42;6.65;;;2.80;;
30635;SDS011;17400;52.392;9.750;2023-02-13T10:08:18;4.97;;;2.00;;
30635;SDS011;17400;52.392;9.750;2023-02-13T10:10:55;6.30;;;3.50;;
30635;SDS011;17400;52.392;9.750;2023-02-13T10:13:33;9.38;;;4.32;;
30635;SDS011;17400;52.392;9.750;2023-02-13T10:16:28;10.27;;;4.40;;
30635;SDS011;17400;52.392;9.750;2023-02-13T10:19:01;6.90;;;2.88;;
30635;SDS011;17400;52.392;9.750;2023-02-13T10:21:40;8.68;;;4.00;;
30635;SDS011;17400;52.392;9.750;2023-02-13T10:24:17;9.73;;;3.67;;
30635;SDS011;17400;52.392;9.750;2023-02-13T10:26:52;8.30;;;3.92;;
30635;SDS011;17400;52.392;9.750;2023-02-13T10:29:23;8.15;;;3.47;;
30635;SDS011;17400;52.392;9.750;2023-02-13T10:32:17;7.72;;;3.72;;
30635;SDS011;17400;52.392;9.750;2023-02-13T10:34:53;9.10;;;3.88;;
30635;SDS011;17400;52.392;9.750;2023-02-13T10:37:26;10.73;;;4.75;;
30635;SDS011;17400;52.392;9.750;2023-02-13T10:39:55;12.10;;;4.18;;
30635;SDS011;17400;52.392;9.750;2023-02-13T10:42:26;7.65;;;3.60;;
30635;SDS011;17400;52.392;9.750;2023-02-13T10:45:17;6.93;;;3.22;;
30635;SDS011;17400;52.392;9.750;2023-02-13T10:47:57;12.55;;;6.45;;
30635;SDS011;17400;52.392;9.750;2023-02-13T10:50:42;10.15;;;5.53;;
30635;SDS011;17400;52.392;9.750;2023-02-13T10:53:22;10.57;;;4.68;;
30635;SDS011;17400;52.392;9.750;2023-02-13T10:56:08;7.85;;;3.80;;
30635;SDS011;17400;52.392;9.750;2023-02-13T11:01:36;7.75;;;3.38;;
30635;SDS011;17400;52.392;9.750;2023-02-13T11:04:13;9.60;;;3.78;;
30635;SDS011;17400;52.392;9.750;2023-02-13T11:06:47;8.00;;;3.10;;
30635;SDS011;17400;52.392;9.750;2023-02-13T11:09:21;6.25;;;3.22;;
30635;SDS011;17400;52.392;9.750;2023-02-13T11:11:50;6.28;;;2.88;;
30635;SDS011;17400;52.392;9.750;2023-02-13T11:14:18;6.20;;;3.25;;
30635;SDS011;17400;52.392;9.750;2023-02-13T11:16:48;7.40;;;3.10;;
30635;SDS011;17400;52.392;9.750;2023-02-13T11:19:20;10.10;;;3.70;;
30635;SDS011;17400;52.392;9.750;2023-02-13T11:21:54;9.05;;;4.20;;
30635;SDS011;17400;52.392;9.750;2023-02-13T11:24:25;8.27;;;3.15;;
30635;SDS011;17400;52.392;9.750;2023-02-13T11:26:56;7.55;;;3.00;;
30635;SDS011;17400;52.392;9.750;2023-02-13T11:29:27;8.77;;;3.88;;
30635;SDS011;17400;52.392;9.750;2023-02-13T11:32:04;8.98;;;4.70;;
30635;SDS011;17400;52.392;9.750;2023-02-13T11:34:42;7.15;;;3.60;;
30635;SDS011;17400;52.392;9.750;2023-02-13T11:39:58;6.90;;;3.80;;
30635;SDS011;17400;52.392;9.750;2023-02-13T11:42:46;8.18;;;3.55;;
30635;SDS011;17400;52.392;9.750;2023-02-13T11:45:19;8.18;;;3.92;;
30635;SDS011;17400;52.392;9.750;2023-02-13T11:47:48;12.15;;;5.05;;
30635;SDS011;17400;52.392;9.750;2023-02-13T11:50:21;8.60;;;4.05;;
30635;SDS011;17400;52.392;9.750;2023-02-13T11:52:54;7.22;;;3.28;;
30635;SDS011;17400;52.392;9.750;2023-02-13T11:55:27;6.68;;;3.30;;
30635;SDS011;17400;52.392;9.750;2023-02-13T11:57:58;8.32;;;4.32;;
30635;SDS011;17400;52.392;9.750;2023-02-13T12:00:28;5.90;;;3.58;;
30635;SDS011;17400;52.392;9.750;2023-02-13T12:03:03;5.30;;;2.75;;
30635;SDS011;17400;52.392;9.750;2023-02-13T12:05:58;6.15;;;2.40;;
30635;SDS011;17400;52.392;9.750;2023-02-13T12:08:29;8.30;;;2.90;;
30635;SDS011;17400;52.392;9.750;2023-02-13T12:10:58;6.53;;;3.20;;
30635;SDS011;17400;52.392;9.750;2023-02-13T12:13:28;7.60;;;3.40;;
30635;SDS011;17400;52.392;9.750;2023-02-13T12:15:59;7.88;;;3.40;;
30635;SDS011;17400;52.392;9.750;2023-02-13T12:18:32;6.03;;;2.80;;
30635;SDS011;17400;52.392;9.750;2023-02-13T12:21:08;5.82;;;2.97;;
30635;SDS011;17400;52.392;9.750;2023-02-13T12:23:47;5.63;;;2.65;;
30635;SDS011;17400;52.392;9.750;2023-02-13T12:26:22;7.38;;;2.75;;
30635;SDS011;17400;52.392;9.750;2023-02-13T12:29:00;5.78;;;2.85;;
30635;SDS011;17400;52.392;9.750;2023-02-13T12:31:50;4.78;;;2.50;;
30635;SDS011;17400;52.392;9.750;2023-02-13T12:34:44;6.65;;;3.33;;
30635;SDS011;17400;52.392;9.750;2023-02-13T12:37:25;7.22;;;2.92;;
30635;SDS011;17400;52.392;9.750;2023-02-13T12:40:20;5.78;;;2.38;;
30635;SDS011;17400;52.392;9.750;2023-02-13T12:42:57;6.78;;;2.88;;
30635;SDS011;17400;52.392;9.750;2023-02-13T12:45:54;6.57;;;2.83;;
30635;SDS011;17400;52.392;9.750;2023-02-13T12:48:31;4.80;;;2.65;;
30635;SDS011;17400;52.392;9.750;2023-02-13T12:51:09;7.50;;;2.53;;
30635;SDS011;17400;52.392;9.750;2023-02-13T12:53:54;5.78;;;2.53;;
30635;SDS011;17400;52.392;9.750;2023-02-13T12:56:37;10.07;;;3.15;;
30635;SDS011;17400;52.392;9.750;2023-02-13T12:59:23;4.70;;;2.00;;
30635;SDS011;17400;52.392;9.750;2023-02-13T13:02:14;6.35;;;2.95;;
30635;SDS011;17400;52.392;9.750;2023-02-13T13:05:04;4.70;;;2.60;;
30635;SDS011;17400;52.392;9.750;2023-02-13T13:07:46;4.25;;;2.28;;
30635;SDS011;17400;52.392;9.750;2023-02-13T13:10:33;6.50;;;2.72;;
30635;SDS011;17400;52.392;9.750;2023-02-13T13:13:11;5.70;;;2.70;;
30635;SDS011;17400;52.392;9.750;2023-02-13T13:15:50;5.13;;;2.38;;
30635;SDS011;17400;52.392;9.750;2023-02-13T13:18:26;6.32;;;3.30;;
30635;SDS011;17400;52.392;9.750;2023-02-13T13:21:05;5.63;;;3.08;;
30635;SDS011;17400;52.392;9.750;2023-02-13T13:23:42;7.18;;;2.95;;
30635;SDS011;17400;52.392;9.750;2023-02-13T13:26:20;5.97;;;3.30;;
30635;SDS011;17400;52.392;9.750;2023-02-13T13:28:59;6.10;;;2.83;;
30635;SDS011;17400;52.392;9.750;2023-02-13T13:31:31;8.25;;;3.15;;
30635;SDS011;17400;52.392;9.750;2023-02-13T13:34:04;7.90;;;2.90;;
30635;SDS011;17400;52.392;9.750;2023-02-13T13:36:35;8.60;;;3.38;;
30635;SDS011;17400;52.392;9.750;2023-02-13T13:39:14;6.72;;;2.97;;
30635;SDS011;17400;52.392;9.750;2023-02-13T13:41:55;5.72;;;2.83;;
30635;SDS011;17400;52.392;9.750;2023-02-13T13:44:39;6.70;;;3.58;;
30635;SDS011;17400;52.392;9.750;2023-02-13T13:47:20;9.45;;;3.70;;
30635;SDS011;17400;52.392;9.750;2023-02-13T13:49:53;9.98;;;3.90;;
30635;SDS011;17400;52.392;9.750;2023-02-13T13:52:24;7.88;;;4.32;;
30635;SDS011;17400;52.392;9.750;2023-02-13T13:54:54;11.10;;;3.95;;
30635;SDS011;17400;52.392;9.750;2023-02-13T13:57:23;9.00;;;4.03;;
30635;SDS011;17400;52.392;9.750;2023-02-13T14:05:57;7.95;;;3.92;;
30635;SDS011;17400;52.392;9.750;2023-02-13T14:08:51;9.88;;;4.57;;
30635;SDS011;17400;52.392;9.750;2023-02-13T14:11:36;10.18;;;4.25;;
30635;SDS011;17400;52.392;9.750;2023-02-13T14:23:17;7.78;;;3.30;;
30635;SDS011;17400;52.392;9.750;2023-02-13T14:28:57;8.68;;;3.28;;
30635;SDS011;17400;52.392;9.750;2023-02-13T14:31:36;8.27;;;3.80;;
30635;SDS011;17400;52.392;9.750;2023-02-13T14:34:08;6.70;;;3.22;;
30635;SDS011;17400;52.392;9.750;2023-02-13T14:36:46;8.18;;;3.00;;
30635;SDS011;17400;52.392;9.750;2023-02-13T14:39:17;6.97;;;3.33;;
30635;SDS011;17400;52.392;9.750;2023-02-13T14:41:58;8.13;;;3.15;;
30635;SDS011;17400;52.392;9.750;2023-02-13T14:44:29;8.52;;;3.97;;
30635;SDS011;17400;52.392;9.750;2023-02-13T14:47:00;7.95;;;3.42;;
30635;SDS011;17400;52.392;9.750;2023-02-13T14:49:32;8.68;;;4.22;;
30635;SDS011;17400;52.392;9.750;2023-02-13T14:52:03;5.88;;;3.30;;
30635;SDS011;17400;52.392;9.750;2023-02-13T14:54:34;7.00;;;3.72;;
30635;SDS011;17400;52.392;9.750;2023-02-13T14:57:05;7.97;;;3.65;;
30635;SDS011;17400;52.392;9.750;2023-02-13T14:59:37;6.72;;;3.05;;
30635;SDS011;17400;52.392;9.750;2023-02-13T15:02:17;6.75;;;3.17;;
30635;SDS011;17400;52.392;9.750;2023-02-13T15:04:52;7.35;;;4.10;;
30635;SDS011;17400;52.392;9.750;2023-02-13T15:07:23;7.47;;;3.75;;
30635;SDS011;17400;52.392;9.750;2023-02-13T15:09:57;7.95;;;3.58;;
30635;SDS011;17400;52.392;9.750;2023-02-13T15:12:29;9.60;;;4.03;;
30635;SDS011;17400;52.392;9.750;2023-02-13T15:14:59;10.15;;;4.55;;
30635;SDS011;17400;52.392;9.750;2023-02-13T15:17:29;9.02;;;3.63;;
30635;SDS011;17400;52.392;9.750;2023-02-13T15:20:06;8.77;;;3.65;;
30635;SDS011;17400;52.392;9.750;2023-02-13T15:22:50;8.23;;;3.83;;
30635;SDS011;17400;52.392;9.750;2023-02-13T15:25:19;9.18;;;3.97;;
30635;SDS011;17400;52.392;9.750;2023-02-13T15:27:52;6.70;;;3.08;;
30635;SDS011;17400;52.392;9.750;2023-02-13T15:30:22;7.68;;;3.45;;
30635;SDS011;17400;52.392;9.750;2023-02-13T15:32:54;5.93;;;3.38;;
30635;SDS011;17400;52.392;9.750;2023-02-13T15:35:25;5.63;;;2.67;;
30635;SDS011;17400;52.392;9.750;2023-02-13T15:37:54;8.48;;;3.55;;
30635;SDS011;17400;52.392;9.750;2023-02-13T15:40:24;7.53;;;3.83;;
30635;SDS011;17400;52.392;9.750;2023-02-13T15:42:53;5.45;;;2.85;;
30635;SDS011;17400;52.392;9.750;2023-02-13T15:45:23;6.82;;;3.55;;
30635;SDS011;17400;52.392;9.750;2023-02-13T15:47:53;7.93;;;4.53;;
30635;SDS011;17400;52.392;9.750;2023-02-13T15:50:25;6.07;;;2.75;;